• Join FlightAware (Why Join?)
  • Login
  • US Flag 
01:49PM EDT


 

Airport Tracker/Info


-or-


 

Live Flight TrackerFlight Track Log ✈ FLG3800 ✈ 17-May-2013 ✈ KDTW - KBTV

Flight Track Log - Related Links

Times and Time Zones

All times are in EDT time to prevent confusion due to time zone crossing. See the FLG3800 flight status page for this flight to view local times or setup timezone preferences in your user account.

Time Position Orientation Groundspeed Altitude Reporting Facility
EDT Latitude Longitude Course Direction KTS MPH feet Rate Location/Type
09:45PM 42.2314 -83.3342 82° East 162 186 1,100  Level Cleveland Center
09:46PM 42.2461 -83.3208 34° Northeast 153 176 1,900 1,800 Climbing Cleveland Center
09:46PM 42.2631 -83.3131 19° North 179 206 2,600 1,860 Climbing Cleveland Center
09:47PM 42.2844 -83.2917 36° Northeast 192 221 3,800 1,440 Climbing Cleveland Center
09:48PM 42.2878 -82.8942 75° East  Level FlightAware Approximate
09:48PM 42.3050 -83.2139 70° East 197 227 5,000  Level Cleveland Center
09:49PM 42.3175 -82.7422 82° East  Level FlightAware Approximate
09:49PM 42.3136 -83.1103 84° East 226 260 7,000  Level Cleveland Center
09:50PM 42.3330 -82.5864 82° East  Level FlightAware Approximate
09:50PM 42.3242 -83.0011 83° East 259 298 9,500  Level Cleveland Center
09:51PM 42.3331 -82.8836 84° East 288 331 11,000 1,200 Climbing Cleveland Center
09:52PM 42.3439 -82.7464 84° East 329 379 12,000 900 Climbing Cleveland Center
09:53PM 42.3550 -82.6006 84° East 367 422 12,900 1,080 Climbing Cleveland Center
09:54PM 42.3658 -82.4436 85° East 398 458 14,200 1,260 Climbing Cleveland Center
09:55PM 42.3600 -82.2858 93° East 411 473 15,500 1,020 Climbing Cleveland Center
09:56PM 42.3539 -82.1286 93° East 416 479 16,300 780 Climbing Cleveland Center
09:57PM 42.3497 -81.9711 92° East 422 486 17,100 780 Climbing Cleveland Center
09:58PM 42.3392 -81.7967 95° East 422 486 17,900 720 Climbing Cleveland Center
09:59PM 42.3325 -81.6308 93° East 427 491 18,600 720 Climbing Cleveland Center
10:00PM 42.3256 -81.4650 93° East 433 498 19,400 720 Climbing Cleveland Center
10:01PM 42.3183 -81.3019 93° East 433 498 20,100 600 Climbing Cleveland Center
10:02PM 42.3089 -81.1333 94° East 443 510 20,700 660 Climbing Cleveland Center
10:03PM 42.2992 -80.9622 94° East 449 517 21,500 900 Climbing Cleveland Center
10:04PM 42.2892 -80.7936 95° East 449 517 22,500 900 Climbing Cleveland Center
10:05PM 42.2808 -80.6281 94° East 443 510 23,300 3,240 Climbing Cleveland Center
10:06PM 42.2747 -80.4794 93° East 443 510 29,000 420 Climbing Cleveland Center
10:07PM 42.2639 -80.3056 95° East 448 516 24,200 -2,160 Descending Cleveland Center
10:08PM 42.2531 -80.1317 95° East 458 527 24,700 480 Climbing Cleveland Center
10:09PM 42.2439 -79.9436 94° East 463 533 25,200 480 Climbing Cleveland Center
10:10PM 42.2803 -79.7861 73° East 440 506 25,700 480 Climbing Cleveland Center
10:11PM 42.3356 -79.6506 61° Northeast 440 506 26,200 480 Climbing Cleveland Center
10:12PM 42.3967 -79.4981 61° Northeast 445 512 26,700 540 Climbing Cleveland Center
10:13PM 42.4639 -79.3336 61° Northeast 453 521 27,300 540 Climbing Cleveland Center
10:14PM 42.5225 -79.1775 63° Northeast 453 521 27,800 480 Climbing Cleveland Center
10:15PM 42.5811 -79.0267 62° Northeast 458 527 28,300 480 Climbing Cleveland Center
10:16PM 42.6414 -78.8728 62° Northeast 458 527 28,800 300 Climbing Cleveland Center
10:17PM 42.6894 -78.7528 61° Northeast 458 527 29,000 60 Climbing Cleveland Center
10:18PM 42.7533 -78.5814 63° Northeast 458 527 29,000  Level Cleveland Center
10:19PM 42.8153 -78.4208 62° Northeast 458 527 29,000  Level Cleveland Center
10:20PM 42.8767 -78.2600 62° Northeast 463 533 29,000  Level Cleveland Center
10:21PM 42.9378 -78.0933 63° Northeast 473 544 29,000  Level Cleveland Center
10:22PM 43.0008 -77.9261 63° Northeast 484 557 29,000  Level Cleveland Center
10:23PM 43.0636 -77.7614 62° Northeast 484 557 29,000  Level Cleveland Center
10:24PM 43.1261 -77.5936 63° Northeast 484 557 29,000  Level Cleveland Center
10:25PM 43.2231 -77.3306 63° Northeast 512 589 29,000  Level Boston Center
10:26PM 43.2844 -77.1614 63° Northeast 499 574 29,000  Level Boston Center
10:27PM 43.3336 -77.0281 63° Northeast 494 568 29,000  Level Boston Center
10:28PM 43.4022 -76.8217 65° Northeast 494 568 29,000  Level Boston Center
10:29PM 43.4586 -76.6511 65° Northeast 494 568 29,000  Level Boston Center
10:30PM 43.5131 -76.4744 67° East 494 568 29,000  Level Boston Center
10:31PM 43.5669 -76.2975 67° East 494 568 29,000  Level Boston Center
10:32PM 43.6228 -76.1231 66° East 494 568 29,000  Level Boston Center
10:33PM 43.6764 -75.9456 67° East 494 568 29,000  Level Boston Center
10:34PM 43.7275 -75.7703 68° East 489 563 29,000  Level Boston Center
10:35PM 43.7806 -75.5892 68° East 495 570 29,000 -60 Level Boston Center
10:36PM 43.8331 -75.4133 67° East 495 570 28,900  Descending Boston Center
10:37PM 43.8878 -75.2344 67° East 495 570 29,000 -1,200 Climbing Boston Center
10:38PM 43.9378 -75.0553 69° East 495 570 26,600 -2,460 Descending Boston Center
10:39PM 43.9964 -74.8528 68° East 485 558 23,600 -2,520 Descending Boston Center
10:40PM 44.0436 -74.6872 68° East 471 542 21,100 -2,520 Descending Boston Center
10:41PM 44.0881 -74.5300 68° East 454 522 18,600 -1,560 Descending Boston Center
10:42PM 44.1325 -74.3753 68° East 436 502 18,000 -600 Descending Boston Center
10:43PM 44.1744 -74.2231 69° East 424 488 17,400 -1,500 Descending Boston Center
10:44PM 44.2208 -74.0594 68° East 419 482 15,100 -2,220 Descending Boston Center
10:45PM 44.2622 -73.9186 68° East 406 467 13,000 -2,100 Descending Boston Center
10:46PM 44.3075 -73.7947 63° Northeast 379 436 11,000 -1,500 Descending Boston Center
10:47PM 44.3503 -73.7031 57° Northeast 338 389 10,000 -1,380 Descending Boston Center
10:48PM 44.3908 -73.6139 58° Northeast 291 335 8,300 -1,800 Descending Boston Center
10:49PM 44.4250 -73.5244 62° Northeast 263 303 6,400 -2,100 Descending Boston Center
10:50PM 44.4531 -73.4289 68° East 247 284 4,100 -2,340 Descending Boston Center